Time;durP1;ratioP1;P1;durP2;ratioP2;P2;SDS_P1;SDS_P2;PMS_P1;PMS_P2;Temp;Humidity;BMP_temperature;BMP_pressure;BME280_temperature;BME280_humidity;BME280_pressure;Samples;Min_cycle;Max_cycle;Signal;HPM_P1;HPM_P2
2023/12/25 00:00:44;;;;;;;10.07;2.37;;;12.90;99.90;;;;;;7283823;19;20193;-75
2023/12/25 00:03:10;;;;;;;10.53;2.97;;;12.80;99.90;;;;;;7280091;19;20214;-75
2023/12/25 00:05:36;;;;;;;8.03;2.97;;;12.70;99.90;;;;;;7302034;19;20193;-74
2023/12/25 00:08:02;;;;;;;9.77;2.33;;;12.70;99.90;;;;;;7281045;19;20184;-75
2023/12/25 00:10:27;;;;;;;9.77;2.40;;;12.70;99.90;;;;;;7282391;19;20227;-75
2023/12/25 00:12:53;;;;;;;10.43;2.67;;;12.70;99.90;;;;;;7280441;19;20583;-74
2023/12/25 00:15:19;;;;;;;10.70;2.90;;;12.70;99.90;;;;;;7280686;19;20196;-75
2023/12/25 00:17:44;;;;;;;10.43;2.80;;;12.70;99.90;;;;;;7280980;19;20199;-75
2023/12/25 00:20:10;;;;;;;12.20;2.43;;;12.70;99.90;;;;;;7281168;19;20192;-75
2023/12/25 00:22:36;;;;;;;7.67;2.60;;;12.60;99.90;;;;;;7303898;19;20235;-75
2023/12/25 00:25:02;;;;;;;9.53;2.47;;;12.60;99.90;;;;;;7280324;19;21003;-75
2023/12/25 00:27:28;;;;;;;7.03;2.53;;;12.60;99.90;;;;;;7282175;19;20286;-77
2023/12/25 00:29:54;;;;;;;7.40;2.80;;;12.60;99.90;;;;;;7280800;19;20222;-76
2023/12/25 00:32:21;;;;;;;8.30;3.00;;;12.60;99.90;;;;;;7280534;19;20601;-77
2023/12/25 00:34:46;;;;;;;9.17;2.93;;;12.60;99.90;;;;;;7279819;19;20189;-76
2023/12/25 00:37:12;;;;;;;11.20;3.33;;;12.60;99.90;;;;;;7279827;19;20921;-76
2023/12/25 00:39:38;;;;;;;6.67;2.93;;;12.70;99.90;;;;;;7299166;19;20730;-76
2023/12/25 00:42:04;;;;;;;9.97;3.13;;;12.60;99.90;;;;;;7300262;19;20211;-76
2023/12/25 00:44:30;;;;;;;8.93;3.60;;;12.60;99.90;;;;;;7276403;19;20231;-76
2023/12/25 00:46:56;;;;;;;12.70;3.80;;;12.60;99.90;;;;;;7280316;19;20192;-78
2023/12/25 00:49:22;;;;;;;12.60;3.53;;;12.50;99.90;;;;;;7281426;19;20198;-75
2023/12/25 00:51:47;;;;;;;10.47;3.50;;;12.60;99.90;;;;;;7278768;19;21002;-75
2023/12/25 00:54:13;;;;;;;8.90;4.07;;;12.60;99.90;;;;;;7280775;19;20187;-76
2023/12/25 00:56:39;;;;;;;8.70;3.87;;;12.60;99.90;;;;;;7288488;19;20196;-76
2023/12/25 00:59:06;;;;;;;10.13;3.93;;;12.60;99.90;;;;;;7298429;19;20180;-76
2023/12/25 01:01:31;;;;;;;10.20;4.10;;;12.60;99.90;;;;;;7280747;19;20198;-75
2023/12/25 01:03:57;;;;;;;9.63;4.43;;;12.60;99.90;;;;;;7278813;19;20688;-76
2023/12/25 01:06:23;;;;;;;10.00;5.03;;;12.60;99.90;;;;;;7279728;19;20547;-77
2023/12/25 01:08:48;;;;;;;11.27;4.90;;;12.60;99.90;;;;;;7280792;19;20204;-76
2023/12/25 01:11:14;;;;;;;14.33;4.93;;;12.60;99.90;;;;;;7278999;19;20188;-76
2023/12/25 01:13:40;;;;;;;10.67;4.70;;;12.60;99.90;;;;;;7279773;19;20193;-76
2023/12/25 01:16:06;;;;;;;11.97;4.73;;;12.60;99.90;;;;;;7300532;19;20856;-77
2023/12/25 01:18:32;;;;;;;13.13;4.43;;;12.60;99.90;;;;;;7280500;19;20345;-76
2023/12/25 01:20:57;;;;;;;13.07;4.90;;;12.60;99.90;;;;;;7279426;19;20620;-76
2023/12/25 01:23:23;;;;;;;11.70;4.43;;;12.50;99.90;;;;;;7279560;19;20188;-76
2023/12/25 01:25:49;;;;;;;11.10;4.30;;;12.50;99.90;;;;;;7276245;19;20651;-77
2023/12/25 01:28:15;;;;;;;12.13;4.40;;;12.50;99.90;;;;;;7278710;19;20711;-76
2023/12/25 01:30:40;;;;;;;7.97;4.07;;;12.50;99.90;;;;;;7280036;19;20187;-76
2023/12/25 01:33:06;;;;;;;11.27;4.10;;;12.50;99.90;;;;;;7302202;19;20660;-77
2023/12/25 01:35:32;;;;;;;8.77;3.93;;;12.50;99.90;;;;;;7278707;19;20185;-78
2023/12/25 01:37:58;;;;;;;10.23;4.20;;;12.50;99.90;;;;;;7279300;19;20206;-77
2023/12/25 01:40:23;;;;;;;10.03;3.73;;;12.50;99.90;;;;;;7279255;19;20195;-77
2023/12/25 01:42:49;;;;;;;11.00;3.73;;;12.50;99.90;;;;;;7279626;19;20197;-77
2023/12/25 01:45:15;;;;;;;6.97;3.37;;;12.50;99.90;;;;;;7278046;19;20185;-76
2023/12/25 01:47:41;;;;;;;12.30;3.90;;;12.50;99.90;;;;;;7279032;19;20185;-75
2023/12/25 01:50:08;;;;;;;8.00;3.60;;;12.50;99.90;;;;;;7300944;19;20575;-76
2023/12/25 01:52:33;;;;;;;8.43;3.23;;;12.50;99.90;;;;;;7279654;19;20577;-76
2023/12/25 01:55:01;;;;;;;8.30;3.40;;;12.50;99.90;;;;;;7280387;19;20253;-75
2023/12/25 01:57:31;;;;;;;9.80;3.40;;;12.50;99.90;;;;;;7277627;19;20213;-76
2023/12/25 01:59:57;;;;;;;8.47;3.70;;;12.40;99.90;;;;;;7277912;19;20204;-76
2023/12/25 02:02:23;;;;;;;8.20;3.60;;;12.50;99.90;;;;;;7279248;19;20188;-76
2023/12/25 02:04:49;;;;;;;9.47;3.60;;;12.60;99.90;;;;;;7276122;19;20791;-77
2023/12/25 02:07:15;;;;;;;10.90;3.90;;;12.70;99.90;;;;;;7277397;19;21055;-77
2023/12/25 02:09:46;;;;;;;8.13;3.50;;;12.70;99.90;;;;;;7277977;19;20193;-81
2023/12/25 02:12:12;;;;;;;6.10;3.30;;;12.60;99.90;;;;;;7276759;19;20853;-76
2023/12/25 02:14:38;;;;;;;9.17;3.23;;;12.60;99.90;;;;;;7296326;19;20185;-76
2023/12/25 02:17:05;;;;;;;7.00;3.10;;;12.60;99.90;;;;;;7288483;19;20206;-77
2023/12/25 02:19:44;;;;;;;10.70;3.70;;;12.60;99.90;;;;;;7276420;19;20192;-76
2023/12/25 02:22:11;;;;;;;7.73;2.97;;;12.60;99.90;;;;;;7256558;19;20200;-77
2023/12/25 02:24:41;;;;;;;7.33;3.07;;;12.60;99.90;;;;;;7297965;19;20551;-77
2023/12/25 02:27:07;;;;;;;8.37;3.03;;;12.60;99.90;;;;;;7277144;19;20614;-77
2023/12/25 02:29:36;;;;;;;6.63;3.10;;;12.50;99.90;;;;;;7278589;19;20268;-76
2023/12/25 02:32:02;;;;;;;9.23;3.27;;;12.50;99.90;;;;;;7276136;19;20189;-76
2023/12/25 02:34:28;;;;;;;6.17;2.83;;;12.50;99.90;;;;;;7279538;19;20301;-77
2023/12/25 02:36:54;;;;;;;8.20;3.13;;;12.60;99.90;;;;;;7277393;19;20252;-77
2023/12/25 02:39:20;;;;;;;6.93;3.20;;;12.50;99.90;;;;;;7282597;19;20774;-77
2023/12/25 02:41:45;;;;;;;6.87;3.13;;;12.60;99.90;;;;;;7282584;19;20236;-82
2023/12/25 02:44:11;;;;;;;6.70;3.30;;;12.50;99.90;;;;;;7284364;19;20541;-77
2023/12/25 02:46:37;;;;;;;7.57;3.10;;;12.40;99.90;;;;;;7305692;19;20358;-76
2023/12/25 02:49:03;;;;;;;6.27;3.20;;;12.40;99.90;;;;;;7285548;19;20577;-77
2023/12/25 02:51:28;;;;;;;7.37;3.07;;;12.50;99.90;;;;;;7282374;19;20197;-76
2023/12/25 02:53:54;;;;;;;7.33;3.03;;;12.50;99.90;;;;;;7285166;19;20214;-77
2023/12/25 02:56:20;;;;;;;9.33;3.30;;;12.50;99.90;;;;;;7284179;19;20558;-76
2023/12/25 02:58:46;;;;;;;5.57;3.27;;;12.40;99.90;;;;;;7282827;19;20193;-77
2023/12/25 03:01:12;;;;;;;6.57;3.47;;;12.40;99.90;;;;;;7282926;19;20185;-77
2023/12/25 03:03:38;;;;;;;7.70;3.50;;;12.40;99.90;;;;;;7303848;19;20662;-76
2023/12/25 03:06:04;;;;;;;9.50;3.80;;;12.30;99.90;;;;;;7292301;19;20189;-76
2023/12/25 03:08:30;;;;;;;8.60;4.10;;;12.40;99.90;;;;;;7284676;19;20179;-76
2023/12/25 03:10:56;;;;;;;9.17;4.40;;;12.40;99.90;;;;;;7282294;19;20209;-76
2023/12/25 03:13:21;;;;;;;10.93;4.70;;;12.40;99.90;;;;;;7281511;19;20177;-76
2023/12/25 03:15:47;;;;;;;9.63;4.37;;;12.40;99.90;;;;;;7283415;19;20222;-76
2023/12/25 03:18:13;;;;;;;9.77;4.57;;;12.40;99.90;;;;;;7280987;19;20184;-76
2023/12/25 03:20:39;;;;;;;10.27;4.90;;;12.40;99.90;;;;;;7299372;19;20210;-76
2023/12/25 03:23:04;;;;;;;10.43;4.43;;;12.40;99.90;;;;;;7297804;19;20255;-75
2023/12/25 03:25:30;;;;;;;10.67;4.77;;;12.40;99.90;;;;;;7280900;19;20988;-75
2023/12/25 03:27:57;;;;;;;11.03;4.07;;;12.30;99.90;;;;;;7281462;19;20193;-76
2023/12/25 03:30:22;;;;;;;10.93;4.63;;;12.30;99.90;;;;;;7281205;19;20204;-77
2023/12/25 03:32:48;;;;;;;10.90;3.97;;;12.30;99.90;;;;;;7281754;19;20217;-77
2023/12/25 03:35:14;;;;;;;9.87;4.00;;;12.30;99.90;;;;;;7281553;19;20181;-80
2023/12/25 03:37:39;;;;;;;10.03;3.70;;;12.30;99.90;;;;;;7288598;19;20199;-76
2023/12/25 03:40:06;;;;;;;10.17;3.60;;;12.40;99.90;;;;;;7305322;19;20235;-76
2023/12/25 03:42:31;;;;;;;7.73;3.50;;;12.40;99.90;;;;;;7283830;19;20188;-76
2023/12/25 03:44:57;;;;;;;8.20;3.47;;;12.40;99.90;;;;;;7280922;19;20520;-76
2023/12/25 03:47:23;;;;;;;13.03;3.87;;;12.40;99.90;;;;;;7283331;19;20205;-76
2023/12/25 03:49:49;;;;;;;8.03;3.37;;;12.40;99.90;;;;;;7281462;19;20188;-76
2023/12/25 03:52:15;;;;;;;8.73;3.23;;;12.40;99.90;;;;;;7280599;19;20710;-76
2023/12/25 03:54:41;;;;;;;8.97;3.70;;;12.40;99.90;;;;;;7283492;19;20293;-76
2023/12/25 03:57:08;;;;;;;8.23;3.13;;;12.40;99.90;;;;;;7303204;19;20201;-75
2023/12/25 03:59:33;;;;;;;9.43;3.23;;;12.40;99.90;;;;;;7281179;19;20695;-76
2023/12/25 04:01:59;;;;;;;7.73;3.03;;;12.30;99.90;;;;;;7282408;19;20178;-76
2023/12/25 04:04:25;;;;;;;10.70;3.40;;;12.30;99.90;;;;;;7280527;19;20304;-76
2023/12/25 04:06:52;;;;;;;9.27;3.07;;;12.40;99.90;;;;;;7281465;19;20243;-76
2023/12/25 04:09:18;;;;;;;8.07;2.90;;;12.30;99.90;;;;;;7282628;19;20212;-76
2023/12/25 04:11:43;;;;;;;6.57;3.07;;;12.30;99.90;;;;;;7281117;19;20562;-75
2023/12/25 04:14:09;;;;;;;8.07;3.10;;;12.30;99.90;;;;;;7290357;19;20195;-75
2023/12/25 04:16:35;;;;;;;10.10;3.20;;;12.40;99.90;;;;;;7305111;19;20558;-75
2023/12/25 04:19:02;;;;;;;8.33;2.93;;;12.30;99.90;;;;;;7280843;19;20197;-76
2023/12/25 04:21:32;;;;;;;8.97;3.20;;;12.30;99.90;;;;;;7281185;19;20192;-76
2023/12/25 04:23:59;;;;;;;8.40;3.03;;;12.30;99.90;;;;;;7281302;19;21789;-77
2023/12/25 04:26:26;;;;;;;8.80;2.97;;;12.30;99.90;;;;;;7279669;19;20223;-76
2023/12/25 04:28:52;;;;;;;9.10;3.10;;;12.30;99.90;;;;;;7280678;19;20675;-77
2023/12/25 04:31:20;;;;;;;8.40;2.80;;;12.40;99.90;;;;;;7279270;19;20208;-77
2023/12/25 04:33:45;;;;;;;8.40;3.30;;;12.40;99.90;;;;;;7280729;19;20187;-77
2023/12/25 04:36:11;;;;;;;9.33;3.00;;;12.30;99.90;;;;;;7281615;19;20195;-77
2023/12/25 04:38:38;;;;;;;9.47;2.87;;;12.40;99.90;;;;;;7303491;19;20181;-76
2023/12/25 04:41:05;;;;;;;8.10;2.90;;;12.40;99.90;;;;;;7280660;19;20201;-76
2023/12/25 04:43:31;;;;;;;7.83;2.50;;;12.40;99.90;;;;;;7280644;19;20192;-76
2023/12/25 04:45:57;;;;;;;9.87;2.60;;;12.30;99.90;;;;;;7279274;19;20195;-76
2023/12/25 04:48:22;;;;;;;6.60;2.10;;;12.30;99.90;;;;;;7280095;19;20205;-78
2023/12/25 04:50:49;;;;;;;5.00;2.10;;;12.30;99.90;;;;;;7280782;19;20189;-76
2023/12/25 04:53:14;;;;;;;3.77;1.60;;;12.30;99.90;;;;;;7279527;19;20556;-76
2023/12/25 04:55:41;;;;;;;6.17;2.10;;;12.30;99.90;;;;;;7279310;19;20188;-76
2023/12/25 04:58:07;;;;;;;5.37;1.77;;;12.30;99.90;;;;;;7300210;19;20190;-77
2023/12/25 05:00:33;;;;;;;3.77;1.47;;;12.30;99.90;;;;;;7276417;19;20551;-76
2023/12/25 05:02:59;;;;;;;4.87;1.57;;;12.30;99.90;;;;;;7281467;19;20215;-75
2023/12/25 05:05:26;;;;;;;5.50;1.50;;;12.40;99.90;;;;;;7280335;19;20332;-76
2023/12/25 05:07:52;;;;;;;4.73;1.33;;;12.40;99.90;;;;;;7280392;19;20577;-76
2023/12/25 05:10:18;;;;;;;4.43;1.20;;;12.30;99.90;;;;;;7280430;19;20200;-76
2023/12/25 05:12:44;;;;;;;5.10;1.47;;;12.30;99.90;;;;;;7279280;19;20188;-75
2023/12/25 05:15:11;;;;;;;4.30;1.40;;;12.30;99.90;;;;;;7277649;19;20197;-76
2023/12/25 05:17:36;;;;;;;3.63;1.27;;;12.30;99.90;;;;;;7300923;19;20195;-76
2023/12/25 05:20:02;;;;;;;5.17;1.30;;;12.30;99.90;;;;;;7278480;19;20193;-76
2023/12/25 05:22:28;;;;;;;3.83;1.40;;;12.30;99.90;;;;;;7280458;19;20214;-77
2023/12/25 05:24:54;;;;;;;5.83;1.50;;;12.30;99.90;;;;;;7278209;19;20195;-77
2023/12/25 05:27:20;;;;;;;3.63;1.20;;;12.30;99.90;;;;;;7278921;19;20193;-78
2023/12/25 05:29:45;;;;;;;4.03;1.30;;;12.30;99.90;;;;;;7278202;19;21007;-81
2023/12/25 05:32:11;;;;;;;3.83;1.40;;;12.30;99.90;;;;;;7278859;19;20931;-76
2023/12/25 05:34:37;;;;;;;3.43;1.30;;;12.30;99.90;;;;;;7300946;19;20301;-76
2023/12/25 05:37:03;;;;;;;4.43;1.20;;;12.30;99.90;;;;;;7280170;19;20197;-78
2023/12/25 05:39:28;;;;;;;3.33;1.50;;;12.40;99.90;;;;;;7277915;19;20205;-77
2023/12/25 05:41:54;;;;;;;4.83;1.13;;;12.40;99.90;;;;;;7278228;19;20607;-77
2023/12/25 05:44:20;;;;;;;2.77;1.33;;;12.30;99.90;;;;;;7279799;19;20180;-76
2023/12/25 05:46:45;;;;;;;2.93;1.33;;;12.30;99.90;;;;;;7280381;19;20204;-77
2023/12/25 05:49:11;;;;;;;5.87;1.40;;;12.30;99.90;;;;;;7279139;19;20215;-77
2023/12/25 05:51:38;;;;;;;5.77;1.47;;;12.30;99.90;;;;;;7299179;19;20181;-78
2023/12/25 05:54:03;;;;;;;3.47;1.30;;;12.20;99.90;;;;;;7279812;19;20184;-76
2023/12/25 05:56:29;;;;;;;4.30;1.40;;;12.30;99.90;;;;;;7279956;19;20236;-78
2023/12/25 05:58:55;;;;;;;5.80;1.40;;;12.30;99.90;;;;;;7276782;19;20274;-75
2023/12/25 06:01:21;;;;;;;4.30;1.10;;;12.30;99.90;;;;;;7277880;19;20959;-77
2023/12/25 06:03:47;;;;;;;3.40;1.00;;;12.20;99.90;;;;;;7277508;19;20770;-77
2023/12/25 06:06:13;;;;;;;2.07;1.10;;;12.20;99.90;;;;;;7278190;19;20200;-77
2023/12/25 06:08:39;;;;;;;2.47;1.00;;;12.30;99.90;;;;;;7296845;19;20193;-76
2023/12/25 06:11:04;;;;;;;2.93;1.17;;;12.20;99.90;;;;;;7290219;19;20188;-76
2023/12/25 06:13:30;;;;;;;2.53;1.10;;;12.30;99.90;;;;;;7278253;19;20710;-76
2023/12/25 06:15:56;;;;;;;2.07;1.10;;;12.30;99.90;;;;;;7278256;19;20223;-76
2023/12/25 06:18:22;;;;;;;3.73;0.90;;;12.40;99.90;;;;;;7277875;19;20188;-77
2023/12/25 06:20:48;;;;;;;3.17;1.00;;;12.30;99.90;;;;;;7279080;19;20185;-76
2023/12/25 06:23:13;;;;;;;3.43;0.83;;;12.20;99.90;;;;;;7277521;19;20246;-77
2023/12/25 06:25:39;;;;;;;3.57;0.90;;;12.20;99.90;;;;;;7291969;19;20184;-77
2023/12/25 06:28:05;;;;;;;2.37;1.10;;;12.30;99.90;;;;;;7293982;19;20200;-77
2023/12/25 06:30:31;;;;;;;2.93;1.00;;;12.40;99.90;;;;;;7278190;19;20196;-77
2023/12/25 06:32:56;;;;;;;1.70;0.90;;;12.30;99.90;;;;;;7278464;19;20189;-76
2023/12/25 06:35:23;;;;;;;2.40;0.70;;;12.30;99.90;;;;;;7278726;19;20188;-76
2023/12/25 06:37:48;;;;;;;2.30;0.87;;;12.30;99.90;;;;;;7277511;19;20276;-77
2023/12/25 06:40:14;;;;;;;2.80;0.90;;;12.40;99.90;;;;;;7278855;19;20256;-76
2023/12/25 06:42:40;;;;;;;2.97;0.80;;;12.40;99.90;;;;;;7284400;19;20199;-76
2023/12/25 06:45:06;;;;;;;2.03;0.90;;;12.40;99.90;;;;;;7297721;19;20181;-76
2023/12/25 06:47:33;;;;;;;1.73;0.77;;;12.40;99.90;;;;;;7277991;19;20193;-76
2023/12/25 06:49:59;;;;;;;1.83;0.70;;;12.40;99.90;;;;;;7277522;19;20328;-76
2023/12/25 06:52:25;;;;;;;1.40;0.70;;;12.40;99.90;;;;;;7276939;19;20612;-76
2023/12/25 06:54:51;;;;;;;1.30;0.73;;;12.40;99.90;;;;;;7276313;19;20256;-76
2023/12/25 06:57:16;;;;;;;1.57;0.80;;;12.40;99.90;;;;;;7275040;19;20220;-77
2023/12/25 06:59:43;;;;;;;1.57;0.70;;;12.40;99.90;;;;;;7277509;19;20588;-76
2023/12/25 07:02:09;;;;;;;2.37;0.73;;;12.40;99.90;;;;;;7295850;19;20217;-76
2023/12/25 07:04:36;;;;;;;0.97;0.50;;;12.40;99.90;;;;;;7291193;19;20253;-76
2023/12/25 07:07:02;;;;;;;1.47;0.70;;;12.50;99.90;;;;;;7276651;19;20201;-76
2023/12/25 07:09:27;;;;;;;1.00;0.70;;;12.50;99.90;;;;;;7277370;19;20177;-76
2023/12/25 07:11:53;;;;;;;2.13;0.70;;;12.50;99.90;;;;;;7277613;19;20199;-76
2023/12/25 07:14:19;;;;;;;2.33;0.90;;;12.50;99.90;;;;;;7276912;19;20189;-76
2023/12/25 07:16:45;;;;;;;1.47;1.00;;;12.60;99.90;;;;;;7276911;19;20643;-76
2023/12/25 07:19:11;;;;;;;1.43;0.70;;;12.50;99.90;;;;;;7276442;19;20649;-76
2023/12/25 07:21:37;;;;;;;1.20;0.70;;;12.60;99.90;;;;;;7298688;19;20189;-76
2023/12/25 07:24:04;;;;;;;1.90;0.70;;;12.60;99.90;;;;;;7277694;19;20188;-76
2023/12/25 07:26:29;;;;;;;1.20;0.63;;;12.60;99.90;;;;;;7283236;19;20186;-76
2023/12/25 07:28:55;;;;;;;2.63;0.80;;;12.50;99.90;;;;;;7281796;19;20195;-75
2023/12/25 07:31:21;;;;;;;1.17;0.77;;;12.50;99.90;;;;;;7282458;19;20204;-76
2023/12/25 07:33:47;;;;;;;1.40;0.80;;;12.50;99.90;;;;;;7281962;19;20200;-75
2023/12/25 07:36:13;;;;;;;2.20;0.80;;;12.50;99.90;;;;;;7283801;19;20230;-76
2023/12/25 07:38:41;;;;;;;1.83;0.80;;;12.50;99.90;;;;;;7301087;19;20189;-76
2023/12/25 07:41:08;;;;;;;2.13;0.80;;;12.50;99.90;;;;;;7306834;19;20201;-75
2023/12/25 07:43:35;;;;;;;3.30;0.80;;;12.60;99.90;;;;;;7281237;19;20206;-75
2023/12/25 07:46:04;;;;;;;2.87;0.80;;;12.60;99.90;;;;;;7282788;19;20212;-76
2023/12/25 07:48:30;;;;;;;2.20;1.07;;;12.70;99.90;;;;;;7283631;19;20190;-76
2023/12/25 07:50:56;;;;;;;1.77;0.80;;;12.70;99.90;;;;;;7279961;19;20660;-78
2023/12/25 07:53:21;;;;;;;1.73;0.80;;;12.60;99.90;;;;;;7280137;19;20197;-76
2023/12/25 07:55:47;;;;;;;2.40;0.87;;;12.70;99.90;;;;;;7282643;19;20193;-75
2023/12/25 07:58:14;;;;;;;1.90;0.97;;;12.60;99.90;;;;;;7280842;19;20212;-75
2023/12/25 08:00:42;;;;;;;1.03;0.80;;;12.60;99.90;;;;;;7289534;19;20181;-76
2023/12/25 08:03:10;;;;;;;2.67;0.87;;;12.60;99.90;;;;;;7302751;19;20652;-75
2023/12/25 08:05:35;;;;;;;1.70;0.90;;;12.60;99.90;;;;;;7282628;19;20186;-76
2023/12/25 08:08:01;;;;;;;3.13;1.03;;;12.60;99.90;;;;;;7282057;19;20185;-76
2023/12/25 08:10:28;;;;;;;1.30;0.83;;;12.60;99.90;;;;;;7280583;19;20204;-76
2023/12/25 08:12:58;;;;;;;1.80;0.87;;;12.60;99.90;;;;;;7281185;19;20837;-76
2023/12/25 08:15:25;;;;;;;2.20;1.10;;;12.60;99.90;;;;;;7281912;19;21049;-76
2023/12/25 08:17:52;;;;;;;1.50;1.10;;;12.60;99.90;;;;;;7280501;19;20852;-76
2023/12/25 08:20:17;;;;;;;1.53;1.10;;;12.60;99.90;;;;;;7281783;19;20214;-76
2023/12/25 08:22:43;;;;;;;1.40;1.00;;;12.60;99.90;;;;;;7282095;19;20178;-75
2023/12/25 08:25:09;;;;;;;1.50;1.10;;;12.60;99.90;;;;;;7298114;19;20210;-76
2023/12/25 08:27:35;;;;;;;1.57;1.07;;;12.60;99.90;;;;;;7295498;19;20606;-76
2023/12/25 08:30:06;;;;;;;1.33;1.10;;;12.70;99.90;;;;;;7282305;19;20183;-76
2023/12/25 08:32:32;;;;;;;1.70;1.20;;;12.70;99.90;;;;;;7281155;19;20193;-76
2023/12/25 08:34:57;;;;;;;2.60;1.30;;;12.70;99.90;;;;;;7281732;19;20195;-76
2023/12/25 08:37:23;;;;;;;2.70;1.13;;;12.70;99.90;;;;;;7280347;19;20189;-75
2023/12/25 08:39:49;;;;;;;2.53;1.33;;;12.80;99.90;;;;;;7281182;19;20202;-76
2023/12/25 08:42:15;;;;;;;2.23;1.37;;;12.80;99.90;;;;;;7281672;19;20313;-76
2023/12/25 08:44:44;;;;;;;3.80;1.80;;;12.90;99.90;;;;;;7280267;19;20193;-75
2023/12/25 08:47:10;;;;;;;2.50;1.50;;;13.00;99.90;;;;;;7292964;19;20185;-77
2023/12/25 08:49:36;;;;;;;2.57;1.20;;;13.00;99.90;;;;;;7298770;19;20646;-77
2023/12/25 08:52:03;;;;;;;2.10;1.30;;;13.00;99.90;;;;;;7280739;19;20190;-77
2023/12/25 08:54:29;;;;;;;2.33;1.40;;;13.00;99.90;;;;;;7281508;19;20197;-76
2023/12/25 08:56:55;;;;;;;1.87;1.20;;;13.00;99.90;;;;;;7280933;19;20188;-77
2023/12/25 08:59:21;;;;;;;2.13;1.30;;;12.90;99.90;;;;;;7275531;19;20196;-75
2023/12/25 09:01:46;;;;;;;2.07;1.33;;;12.90;99.90;;;;;;7278851;19;20192;-76
2023/12/25 09:04:12;;;;;;;2.67;1.37;;;12.90;99.90;;;;;;7279465;19;20560;-76
2023/12/25 09:06:38;;;;;;;2.43;1.27;;;12.90;99.90;;;;;;7302032;19;20254;-76
2023/12/25 09:09:04;;;;;;;1.87;1.10;;;12.80;99.90;;;;;;7282687;19;20181;-76
2023/12/25 09:11:30;;;;;;;2.97;1.50;;;12.90;99.90;;;;;;7282732;19;20183;-75
2023/12/25 09:13:56;;;;;;;2.73;1.33;;;13.00;99.90;;;;;;7280495;19;20188;-77
2023/12/25 09:16:21;;;;;;;2.60;1.53;;;13.00;99.90;;;;;;7280447;19;20205;-76
2023/12/25 09:18:47;;;;;;;3.20;1.50;;;12.90;99.90;;;;;;7280786;19;20194;-77
2023/12/25 09:21:13;;;;;;;3.53;1.60;;;12.90;99.90;;;;;;7279621;19;20189;-77
2023/12/25 09:23:39;;;;;;;2.70;1.60;;;12.90;99.90;;;;;;7304500;19;20183;-76
2023/12/25 09:26:05;;;;;;;2.93;1.50;;;12.90;99.90;;;;;;7280845;19;20189;-77
2023/12/25 09:28:30;;;;;;;2.73;1.70;;;13.00;99.90;;;;;;7280327;19;20189;-77
2023/12/25 09:30:56;;;;;;;2.30;1.50;;;13.10;99.90;;;;;;7280429;19;20185;-77
2023/12/25 09:33:24;;;;;;;2.07;1.40;;;13.10;99.90;;;;;;7279725;19;20185;-76
2023/12/25 09:35:51;;;;;;;4.23;1.70;;;13.00;99.90;;;;;;7281167;19;20189;-76
2023/12/25 09:38:17;;;;;;;4.00;1.90;;;13.00;99.90;;;;;;7279706;19;20203;-77
2023/12/25 09:40:42;;;;;;;4.43;1.80;;;13.00;99.90;;;;;;7280480;19;20656;-77
2023/12/25 09:43:10;;;;;;;3.60;1.63;;;13.00;99.90;;;;;;7301694;19;20197;-76
2023/12/25 09:45:37;;;;;;;3.80;1.90;;;13.00;99.90;;;;;;7280751;19;20248;-77
2023/12/25 09:48:06;;;;;;;4.17;1.90;;;13.00;99.90;;;;;;7278839;19;20563;-77
2023/12/25 09:50:34;;;;;;;3.07;2.00;;;12.90;99.90;;;;;;7279196;19;20690;-76
2023/12/25 09:53:00;;;;;;;3.50;2.00;;;12.90;99.90;;;;;;7280671;19;20201;-77
2023/12/25 09:55:26;;;;;;;4.53;2.10;;;12.90;99.90;;;;;;7278861;19;20200;-78
2023/12/25 09:57:54;;;;;;;5.07;2.47;;;12.90;99.90;;;;;;7278814;19;20675;-76
2023/12/25 10:00:20;;;;;;;7.67;2.43;;;12.90;99.90;;;;;;7279591;19;20185;-77
2023/12/25 10:02:49;;;;;;;4.93;2.50;;;12.90;99.90;;;;;;7277815;19;20960;-77
2023/12/25 10:05:15;;;;;;;4.30;2.33;;;12.90;99.90;;;;;;7279143;19;20206;-78
2023/12/25 10:07:41;;;;;;;3.43;2.33;;;12.90;99.90;;;;;;7285074;19;20637;-77
2023/12/25 10:10:08;;;;;;;4.90;2.60;;;12.80;99.90;;;;;;7301473;19;20184;-77
2023/12/25 10:12:34;;;;;;;5.90;2.50;;;12.90;99.90;;;;;;7277632;19;20185;-77
2023/12/25 10:15:00;;;;;;;4.20;2.30;;;12.90;99.90;;;;;;7268224;19;20219;-77
2023/12/25 10:17:26;;;;;;;6.40;2.30;;;13.00;99.90;;;;;;7274597;19;20194;-78
2023/12/25 10:19:55;;;;;;;5.17;2.50;;;13.00;99.90;;;;;;7273129;19;20189;-78
2023/12/25 10:22:38;;;;;;;5.07;2.20;;;13.00;99.90;;;;;;7271525;19;20187;-77
2023/12/25 10:25:27;;;;;;;4.70;2.40;;;13.00;99.90;;;;;;7272603;19;20181;-78
2023/12/25 10:27:53;;;;;;;5.07;2.63;;;13.10;99.90;;;;;;7169894;19;2004839;-77
2023/12/25 10:30:21;;;;;;;6.33;2.53;;;13.00;99.90;;;;;;7269871;19;20650;-77
2023/12/25 10:32:48;;;;;;;5.10;2.23;;;12.90;99.90;;;;;;7273964;19;20180;-77
2023/12/25 10:35:18;;;;;;;5.40;2.57;;;13.00;99.90;;;;;;7270915;19;20177;-78
2023/12/25 10:37:45;;;;;;;3.93;2.23;;;13.00;99.90;;;;;;7271978;19;20327;-77
2023/12/25 10:40:31;;;;;;;5.93;2.37;;;13.00;99.90;;;;;;7278903;19;20189;-78
2023/12/25 10:42:58;;;;;;;4.53;2.50;;;13.00;99.90;;;;;;7272450;19;20181;-77
2023/12/25 10:45:28;;;;;;;4.87;2.40;;;13.00;99.90;;;;;;7270253;19;20193;-75
2023/12/25 10:48:02;;;;;;;3.63;2.10;;;13.00;99.90;;;;;;7272944;19;20196;-76
2023/12/25 10:50:38;;;;;;;6.13;2.60;;;13.00;99.90;;;;;;7267005;19;20197;-76
2023/12/25 10:53:05;;;;;;;5.10;2.57;;;13.00;99.90;;;;;;7268952;19;20202;-76
2023/12/25 10:55:42;;;;;;;4.20;2.50;;;13.00;99.90;;;;;;7268768;19;20257;-75
2023/12/25 10:58:12;;;;;;;6.23;2.40;;;13.00;99.90;;;;;;7268785;19;20193;-76
2023/12/25 11:00:46;;;;;;;4.97;2.50;;;13.00;99.90;;;;;;7277507;19;20192;-75
2023/12/25 11:03:15;;;;;;;4.17;2.53;;;12.90;99.90;;;;;;7255298;19;20749;-77
2023/12/25 11:05:41;;;;;;;4.07;2.60;;;12.90;99.90;;;;;;7286743;19;20193;-76
2023/12/25 11:08:07;;;;;;;4.63;2.70;;;12.90;99.90;;;;;;7299463;19;20193;-76
2023/12/25 11:10:34;;;;;;;5.70;2.70;;;13.00;99.90;;;;;;7276400;19;20211;-76
2023/12/25 11:13:01;;;;;;;3.87;2.60;;;13.00;99.90;;;;;;7279045;19;20267;-76
2023/12/25 11:15:26;;;;;;;6.03;2.90;;;13.00;99.90;;;;;;7285677;19;20186;-76
2023/12/25 11:17:53;;;;;;;6.30;2.60;;;13.00;99.90;;;;;;7284276;19;20211;-75
2023/12/25 11:20:19;;;;;;;4.17;2.80;;;13.00;99.90;;;;;;7283659;19;20698;-76
2023/12/25 11:22:46;;;;;;;4.57;2.57;;;13.00;99.90;;;;;;7284560;19;20188;-76
2023/12/25 11:25:15;;;;;;;4.63;2.60;;;12.90;99.90;;;;;;7283169;19;20546;-76
2023/12/25 11:27:42;;;;;;;4.17;2.50;;;12.90;99.90;;;;;;7284360;19;20201;-76
2023/12/25 11:30:11;;;;;;;4.03;2.30;;;12.90;99.90;;;;;;7303997;19;20566;-76
2023/12/25 11:32:45;;;;;;;4.93;2.40;;;13.00;99.90;;;;;;7283900;19;20190;-76
2023/12/25 11:35:15;;;;;;;3.50;2.30;;;13.10;99.90;;;;;;7262353;19;20248;-77
2023/12/25 11:37:41;;;;;;;2.93;1.93;;;13.00;99.90;;;;;;7290359;19;20202;-78
2023/12/25 11:40:08;;;;;;;4.83;2.60;;;13.00;99.90;;;;;;7303704;19;20195;-77
2023/12/25 11:42:38;;;;;;;4.13;2.10;;;12.90;99.90;;;;;;7284138;19;20663;-77
2023/12/25 11:45:07;;;;;;;4.23;2.37;;;12.90;99.90;;;;;;7281061;19;20253;-77
2023/12/25 11:47:42;;;;;;;4.40;2.60;;;12.90;99.90;;;;;;7284932;19;20215;-77
2023/12/25 11:50:10;;;;;;;4.20;2.10;;;12.80;99.90;;;;;;7281900;19;20184;-77
2023/12/25 11:52:49;;;;;;;4.93;2.40;;;12.90;99.90;;;;;;7284146;19;20209;-76
2023/12/25 11:55:23;;;;;;;4.17;1.90;;;13.00;99.90;;;;;;7180777;19;2004794;-76
2023/12/25 11:57:50;;;;;;;4.10;2.13;;;13.00;99.90;;;;;;7282017;19;20199;-76
2023/12/25 12:00:33;;;;;;;3.90;2.00;;;12.90;99.90;;;;;;7281852;19;20859;-76
2023/12/25 12:03:00;;;;;;;5.87;2.30;;;12.90;99.90;;;;;;7282734;19;20193;-76
2023/12/25 12:05:27;;;;;;;3.93;2.00;;;13.00;99.90;;;;;;7282906;19;20199;-76
2023/12/25 12:07:53;;;;;;;3.03;1.90;;;13.00;99.90;;;;;;7281943;19;20193;-76
2023/12/25 12:10:19;;;;;;;4.13;2.30;;;13.10;99.90;;;;;;7282240;19;20186;-76
2023/12/25 12:12:44;;;;;;;2.83;1.90;;;13.10;99.90;;;;;;7282809;19;20288;-78
2023/12/25 12:15:10;;;;;;;4.53;2.00;;;13.20;99.90;;;;;;7295368;19;20186;-77
2023/12/25 12:17:36;;;;;;;3.20;2.00;;;13.20;99.90;;;;;;7301953;19;20189;-77
2023/12/25 12:20:04;;;;;;;5.50;2.60;;;13.20;99.90;;;;;;7282321;19;20181;-77
2023/12/25 12:22:31;;;;;;;4.13;2.10;;;13.20;99.90;;;;;;7284218;19;20201;-77
2023/12/25 12:25:14;;;;;;;3.60;2.40;;;13.20;99.90;;;;;;7282502;19;20184;-77
2023/12/25 12:27:40;;;;;;;5.30;2.60;;;13.20;99.90;;;;;;7281415;19;20193;-77
2023/12/25 12:30:09;;;;;;;4.03;2.17;;;13.10;99.90;;;;;;7299118;19;20569;-77
2023/12/25 12:32:36;;;;;;;4.20;2.07;;;13.00;99.90;;;;;;7282506;19;20182;-77
2023/12/25 12:35:04;;;;;;;5.83;3.27;;;13.10;99.90;;;;;;7281415;19;20191;-76
2023/12/25 12:37:31;;;;;;;3.73;2.00;;;13.10;99.90;;;;;;7281407;19;20201;-76
2023/12/25 12:40:01;;;;;;;3.50;1.97;;;13.10;99.90;;;;;;7282158;19;20249;-78
2023/12/25 12:42:27;;;;;;;2.83;1.80;;;13.10;99.90;;;;;;7282532;19;20193;-78